sensor_id;sensor_type;location;lat;lon;timestamp;pressure;altitude;pressure_sealevel;temperature;humidity
74524;BME280;63074;44.696;10.358;2023-11-19T16:18:10;100198.72;;;17.12;98.24
74524;BME280;63074;44.696;10.358;2023-11-19T16:20:39;100196.28;;;19.55;85.27
74524;BME280;63074;44.696;10.358;2023-11-19T16:23:08;100198.75;;;19.94;81.97
74524;BME280;63074;44.696;10.358;2023-11-19T16:25:34;100202.75;;;20.02;78.67
74524;BME280;63074;44.696;10.358;2023-11-19T16:28:03;100198.25;;;18.68;84.67
74524;BME280;63074;44.696;10.358;2023-11-19T16:30:29;100202.06;;;18.28;88.45
74524;BME280;63074;44.696;10.358;2023-11-19T16:32:58;100188.16;;;18.29;88.94
74524;BME280;63074;44.696;10.358;2023-11-19T16:35:25;100185.84;;;18.12;90.38
74524;BME280;63074;44.696;10.358;2023-11-19T16:37:52;100186.38;;;18.14;90.12
74524;BME280;63074;44.696;10.358;2023-11-19T16:40:18;100204.56;;;17.70;93.08
74524;BME280;63074;44.696;10.358;2023-11-19T16:42:45;100205.34;;;17.80;92.86
74524;BME280;63074;44.696;10.358;2023-11-19T16:45:15;100209.56;;;18.02;91.00
74524;BME280;63074;44.696;10.358;2023-11-19T16:47:42;100204.16;;;18.41;88.80
74524;BME280;63074;44.696;10.358;2023-11-19T16:50:11;100203.75;;;17.69;92.45
74524;BME280;63074;44.696;10.358;2023-11-19T16:52:42;100203.19;;;17.72;92.71
74524;BME280;63074;44.696;10.358;2023-11-19T16:55:09;100203.47;;;17.66;94.18
74524;BME280;63074;44.696;10.358;2023-11-19T16:57:41;100208.69;;;17.47;93.50
74524;BME280;63074;44.696;10.358;2023-11-19T17:00:10;100208.78;;;17.21;97.59
74524;BME280;63074;44.696;10.358;2023-11-19T17:02:41;100214.47;;;17.05;99.48
74524;BME280;63074;44.696;10.358;2023-11-19T17:05:09;100207.72;;;16.97;100.00
74524;BME280;63074;44.696;10.358;2023-11-19T17:07:35;100206.41;;;17.79;96.83
74524;BME280;63074;44.696;10.358;2023-11-19T17:10:02;100209.81;;;18.05;92.69
74524;BME280;63074;44.696;10.358;2023-11-19T17:12:29;100220.19;;;17.93;93.02
74524;BME280;63074;44.696;10.358;2023-11-19T17:14:56;100213.41;;;17.11;96.92
74524;BME280;63074;44.696;10.358;2023-11-19T17:17:31;100206.69;;;16.73;100.00
74524;BME280;63074;44.696;10.358;2023-11-19T17:20:00;100209.63;;;17.02;100.00
74524;BME280;63074;44.696;10.358;2023-11-19T17:22:33;100218.75;;;17.41;97.34
74524;BME280;63074;44.696;10.358;2023-11-19T17:25:05;100218.00;;;17.20;98.98
74524;BME280;63074;44.696;10.358;2023-11-19T17:27:32;100215.00;;;17.22;98.92
74524;BME280;63074;44.696;10.358;2023-11-19T17:29:59;100213.94;;;17.18;99.37
74524;BME280;63074;44.696;10.358;2023-11-19T17:32:26;100213.16;;;16.92;100.00
74524;BME280;63074;44.696;10.358;2023-11-19T17:34:53;100220.19;;;16.63;100.00
74524;BME280;63074;44.696;10.358;2023-11-19T17:37:19;100218.88;;;16.85;100.00
74524;BME280;63074;44.696;10.358;2023-11-19T17:39:46;100217.50;;;16.83;100.00
74524;BME280;63074;44.696;10.358;2023-11-19T17:42:12;100219.69;;;16.96;100.00
74524;BME280;63074;44.696;10.358;2023-11-19T17:44:39;100228.88;;;16.39;100.00
74524;BME280;63074;44.696;10.358;2023-11-19T17:47:05;100236.72;;;16.51;100.00
74524;BME280;63074;44.696;10.358;2023-11-19T17:49:31;100239.44;;;16.36;100.00
74524;BME280;63074;44.696;10.358;2023-11-19T17:51:58;100251.22;;;13.27;100.00
74524;BME280;63074;44.696;10.358;2023-11-19T17:54:25;100250.56;;;13.58;100.00
74524;BME280;63074;44.696;10.358;2023-11-19T17:56:51;100238.69;;;13.37;100.00
74524;BME280;63074;44.696;10.358;2023-11-19T17:59:17;100222.94;;;14.43;100.00
74524;BME280;63074;44.696;10.358;2023-11-19T18:01:44;100231.53;;;12.59;100.00
74524;BME280;63074;44.696;10.358;2023-11-19T18:04:10;100228.22;;;12.24;100.00
74524;BME280;63074;44.696;10.358;2023-11-19T18:06:37;100229.59;;;12.26;100.00
74524;BME280;63074;44.696;10.358;2023-11-19T18:09:03;100220.25;;;15.65;100.00
74524;BME280;63074;44.696;10.358;2023-11-19T18:11:36;100222.25;;;15.37;100.00
74524;BME280;63074;44.696;10.358;2023-11-19T18:14:03;100212.59;;;14.67;100.00
74524;BME280;63074;44.696;10.358;2023-11-19T18:16:29;100204.22;;;15.11;100.00
74524;BME280;63074;44.696;10.358;2023-11-19T18:18:55;100208.63;;;15.22;100.00
74524;BME280;63074;44.696;10.358;2023-11-19T18:21:21;100208.97;;;15.36;100.00
74524;BME280;63074;44.696;10.358;2023-11-19T18:23:47;100205.25;;;15.00;100.00
74524;BME280;63074;44.696;10.358;2023-11-19T18:26:13;100206.78;;;15.28;100.00
74524;BME280;63074;44.696;10.358;2023-11-19T18:28:40;100211.19;;;15.02;100.00
74524;BME280;63074;44.696;10.358;2023-11-19T18:31:06;100201.47;;;14.37;100.00
74524;BME280;63074;44.696;10.358;2023-11-19T18:33:33;100204.16;;;14.96;100.00
74524;BME280;63074;44.696;10.358;2023-11-19T18:36:03;100206.22;;;15.31;100.00
74524;BME280;63074;44.696;10.358;2023-11-19T18:38:29;100211.63;;;15.26;100.00
74524;BME280;63074;44.696;10.358;2023-11-19T18:40:56;100208.28;;;15.56;100.00
74524;BME280;63074;44.696;10.358;2023-11-19T18:43:22;100211.72;;;15.41;100.00
74524;BME280;63074;44.696;10.358;2023-11-19T18:45:48;100212.13;;;15.70;100.00
74524;BME280;63074;44.696;10.358;2023-11-19T18:48:14;100210.84;;;15.82;100.00
74524;BME280;63074;44.696;10.358;2023-11-19T18:50:41;100213.63;;;15.45;100.00
74524;BME280;63074;44.696;10.358;2023-11-19T18:53:07;100217.88;;;15.78;100.00
74524;BME280;63074;44.696;10.358;2023-11-19T18:55:34;100228.09;;;15.66;100.00
74524;BME280;63074;44.696;10.358;2023-11-19T18:58:00;100236.28;;;15.76;100.00
74524;BME280;63074;44.696;10.358;2023-11-19T19:00:26;100221.53;;;15.52;100.00
74524;BME280;63074;44.696;10.358;2023-11-19T19:02:52;100219.94;;;15.14;100.00
74524;BME280;63074;44.696;10.358;2023-11-19T19:05:18;100222.22;;;15.27;100.00
74524;BME280;63074;44.696;10.358;2023-11-19T19:07:45;100222.13;;;15.17;100.00
74524;BME280;63074;44.696;10.358;2023-11-19T19:10:11;100223.22;;;15.58;100.00
74524;BME280;63074;44.696;10.358;2023-11-19T19:12:43;100230.53;;;15.63;100.00
74524;BME280;63074;44.696;10.358;2023-11-19T19:15:12;100221.72;;;15.40;100.00
74524;BME280;63074;44.696;10.358;2023-11-19T19:17:39;100222.47;;;15.31;100.00
74524;BME280;63074;44.696;10.358;2023-11-19T19:20:06;100218.53;;;15.06;100.00
74524;BME280;63074;44.696;10.358;2023-11-19T19:22:36;100217.34;;;15.29;100.00
74524;BME280;63074;44.696;10.358;2023-11-19T19:25:03;100222.22;;;15.79;100.00
74524;BME280;63074;44.696;10.358;2023-11-19T19:27:30;100225.25;;;16.03;100.00
74524;BME280;63074;44.696;10.358;2023-11-19T19:29:57;100231.22;;;16.05;100.00
74524;BME280;63074;44.696;10.358;2023-11-19T19:32:23;100228.53;;;16.05;100.00
74524;BME280;63074;44.696;10.358;2023-11-19T19:34:49;100221.97;;;15.96;100.00
74524;BME280;63074;44.696;10.358;2023-11-19T19:37:15;100229.94;;;16.33;100.00
74524;BME280;63074;44.696;10.358;2023-11-19T19:39:42;100232.06;;;16.21;100.00
74524;BME280;63074;44.696;10.358;2023-11-19T19:42:08;100245.91;;;16.14;100.00
74524;BME280;63074;44.696;10.358;2023-11-19T19:44:35;100246.88;;;15.88;100.00
74524;BME280;63074;44.696;10.358;2023-11-19T19:47:02;100245.88;;;16.04;100.00
74524;BME280;63074;44.696;10.358;2023-11-19T19:49:28;100241.53;;;16.08;100.00
74524;BME280;63074;44.696;10.358;2023-11-19T19:51:55;100244.00;;;16.15;100.00
74524;BME280;63074;44.696;10.358;2023-11-19T19:54:22;100251.50;;;15.93;100.00
74524;BME280;63074;44.696;10.358;2023-11-19T19:56:49;100248.72;;;15.72;100.00
74524;BME280;63074;44.696;10.358;2023-11-19T19:59:15;100248.81;;;15.98;100.00
74524;BME280;63074;44.696;10.358;2023-11-19T20:01:41;100247.78;;;16.09;100.00
74524;BME280;63074;44.696;10.358;2023-11-19T20:04:08;100238.34;;;16.32;100.00
74524;BME280;63074;44.696;10.358;2023-11-19T20:06:38;100239.13;;;16.22;100.00
74524;BME280;63074;44.696;10.358;2023-11-19T20:09:05;100236.44;;;16.47;100.00
74524;BME280;63074;44.696;10.358;2023-11-19T20:11:33;100231.25;;;16.10;100.00
74524;BME280;63074;44.696;10.358;2023-11-19T20:14:03;100230.50;;;16.45;100.00
74524;BME280;63074;44.696;10.358;2023-11-19T20:16:32;100230.22;;;16.42;100.00
74524;BME280;63074;44.696;10.358;2023-11-19T20:18:59;100218.03;;;16.60;100.00
74524;BME280;63074;44.696;10.358;2023-11-19T20:21:25;100229.19;;;16.73;100.00
74524;BME280;63074;44.696;10.358;2023-11-19T20:23:51;100223.19;;;16.56;100.00
74524;BME280;63074;44.696;10.358;2023-11-19T20:26:17;100219.66;;;16.61;100.00
74524;BME280;63074;44.696;10.358;2023-11-19T20:28:47;100223.75;;;16.68;100.00
74524;BME280;63074;44.696;10.358;2023-11-19T20:31:14;100221.59;;;16.65;100.00
74524;BME280;63074;44.696;10.358;2023-11-19T20:33:43;100226.41;;;16.53;100.00
74524;BME280;63074;44.696;10.358;2023-11-19T20:36:10;100222.69;;;16.74;100.00
74524;BME280;63074;44.696;10.358;2023-11-19T20:38:36;100226.41;;;16.28;100.00
74524;BME280;63074;44.696;10.358;2023-11-19T20:41:03;100225.88;;;16.46;100.00
74524;BME280;63074;44.696;10.358;2023-11-19T20:43:29;100223.44;;;16.39;100.00
74524;BME280;63074;44.696;10.358;2023-11-19T20:45:55;100213.84;;;15.96;100.00
74524;BME280;63074;44.696;10.358;2023-11-19T20:48:22;100211.19;;;16.06;100.00
74524;BME280;63074;44.696;10.358;2023-11-19T20:50:48;100207.16;;;16.39;100.00
74524;BME280;63074;44.696;10.358;2023-11-19T20:53:14;100205.53;;;16.59;100.00
74524;BME280;63074;44.696;10.358;2023-11-19T20:55:40;100206.59;;;16.27;100.00
74524;BME280;63074;44.696;10.358;2023-11-19T20:58:10;100204.78;;;16.68;100.00
74524;BME280;63074;44.696;10.358;2023-11-19T21:00:37;100202.88;;;16.74;100.00
74524;BME280;63074;44.696;10.358;2023-11-19T21:03:07;100209.06;;;16.44;100.00
74524;BME280;63074;44.696;10.358;2023-11-19T21:05:35;100199.13;;;15.67;100.00
74524;BME280;63074;44.696;10.358;2023-11-19T21:08:05;100201.28;;;15.65;100.00
74524;BME280;63074;44.696;10.358;2023-11-19T21:10:32;100202.38;;;15.69;100.00
74524;BME280;63074;44.696;10.358;2023-11-19T21:12:58;100204.91;;;16.01;100.00
74524;BME280;63074;44.696;10.358;2023-11-19T21:15:26;100200.34;;;16.06;100.00
74524;BME280;63074;44.696;10.358;2023-11-19T21:17:53;100200.56;;;15.95;100.00
74524;BME280;63074;44.696;10.358;2023-11-19T21:20:19;100201.63;;;15.88;100.00
74524;BME280;63074;44.696;10.358;2023-11-19T21:22:45;100184.56;;;15.88;100.00
74524;BME280;63074;44.696;10.358;2023-11-19T21:25:12;100197.00;;;15.79;100.00
74524;BME280;63074;44.696;10.358;2023-11-19T21:27:38;100181.06;;;15.88;100.00
74524;BME280;63074;44.696;10.358;2023-11-19T21:30:05;100185.31;;;15.68;100.00
74524;BME280;63074;44.696;10.358;2023-11-19T21:32:32;100185.38;;;15.94;100.00
74524;BME280;63074;44.696;10.358;2023-11-19T21:34:58;100189.22;;;16.18;100.00
74524;BME280;63074;44.696;10.358;2023-11-19T21:37:24;100179.47;;;16.17;100.00
74524;BME280;63074;44.696;10.358;2023-11-19T21:39:50;100176.78;;;15.44;100.00
74524;BME280;63074;44.696;10.358;2023-11-19T21:42:17;100179.63;;;15.70;100.00
74524;BME280;63074;44.696;10.358;2023-11-19T21:44:43;100180.81;;;15.37;100.00
74524;BME280;63074;44.696;10.358;2023-11-19T21:47:09;100179.44;;;15.29;100.00
74524;BME280;63074;44.696;10.358;2023-11-19T21:49:35;100180.41;;;15.13;100.00
74524;BME280;63074;44.696;10.358;2023-11-19T21:52:03;100178.72;;;14.97;100.00
74524;BME280;63074;44.696;10.358;2023-11-19T21:54:30;100173.31;;;15.02;100.00
74524;BME280;63074;44.696;10.358;2023-11-19T21:56:56;100174.25;;;15.23;100.00
74524;BME280;63074;44.696;10.358;2023-11-19T21:59:22;100172.84;;;14.68;100.00
74524;BME280;63074;44.696;10.358;2023-11-19T22:01:48;100169.63;;;14.71;100.00
74524;BME280;63074;44.696;10.358;2023-11-19T22:04:15;100167.16;;;14.69;100.00
74524;BME280;63074;44.696;10.358;2023-11-19T22:06:41;100173.78;;;14.89;100.00
74524;BME280;63074;44.696;10.358;2023-11-19T22:09:07;100169.75;;;14.54;100.00
74524;BME280;63074;44.696;10.358;2023-11-19T22:11:35;100173.31;;;14.97;100.00
74524;BME280;63074;44.696;10.358;2023-11-19T22:14:01;100166.09;;;14.70;100.00
74524;BME280;63074;44.696;10.358;2023-11-19T22:16:28;100163.38;;;14.38;100.00
74524;BME280;63074;44.696;10.358;2023-11-19T22:18:54;100161.66;;;14.59;100.00
74524;BME280;63074;44.696;10.358;2023-11-19T22:21:20;100156.09;;;14.71;100.00
74524;BME280;63074;44.696;10.358;2023-11-19T22:23:46;100161.59;;;14.86;100.00
74524;BME280;63074;44.696;10.358;2023-11-19T22:26:12;100164.28;;;14.86;100.00
74524;BME280;63074;44.696;10.358;2023-11-19T22:28:38;100156.56;;;14.63;100.00
74524;BME280;63074;44.696;10.358;2023-11-19T22:31:06;100156.53;;;14.31;100.00
74524;BME280;63074;44.696;10.358;2023-11-19T22:33:33;100147.97;;;14.39;100.00
74524;BME280;63074;44.696;10.358;2023-11-19T22:35:59;100152.53;;;14.06;100.00
74524;BME280;63074;44.696;10.358;2023-11-19T22:38:25;100149.16;;;13.94;100.00
74524;BME280;63074;44.696;10.358;2023-11-19T22:40:51;100135.41;;;14.55;100.00
74524;BME280;63074;44.696;10.358;2023-11-19T22:43:19;100149.25;;;15.05;100.00
74524;BME280;63074;44.696;10.358;2023-11-19T22:45:45;100153.47;;;14.49;100.00
74524;BME280;63074;44.696;10.358;2023-11-19T22:48:12;100141.44;;;14.03;100.00
74524;BME280;63074;44.696;10.358;2023-11-19T22:50:38;100141.34;;;14.25;100.00
74524;BME280;63074;44.696;10.358;2023-11-19T22:53:05;100142.88;;;14.15;100.00
74524;BME280;63074;44.696;10.358;2023-11-19T22:55:31;100142.97;;;14.26;100.00
74524;BME280;63074;44.696;10.358;2023-11-19T22:57:57;100135.06;;;14.14;100.00
74524;BME280;63074;44.696;10.358;2023-11-19T23:00:23;100136.09;;;14.40;100.00
74524;BME280;63074;44.696;10.358;2023-11-19T23:02:56;100135.19;;;14.61;100.00
74524;BME280;63074;44.696;10.358;2023-11-19T23:05:23;100133.06;;;14.36;100.00
74524;BME280;63074;44.696;10.358;2023-11-19T23:07:53;100132.34;;;14.14;100.00
74524;BME280;63074;44.696;10.358;2023-11-19T23:10:20;100133.91;;;14.37;100.00
74524;BME280;63074;44.696;10.358;2023-11-19T23:12:46;100132.47;;;14.29;100.00
74524;BME280;63074;44.696;10.358;2023-11-19T23:15:12;100130.69;;;14.40;100.00
74524;BME280;63074;44.696;10.358;2023-11-19T23:17:42;100130.69;;;14.40;100.00
74524;BME280;63074;44.696;10.358;2023-11-19T23:20:09;100133.00;;;14.58;100.00
74524;BME280;63074;44.696;10.358;2023-11-19T23:22:42;100127.13;;;14.34;100.00
74524;BME280;63074;44.696;10.358;2023-11-19T23:25:09;100120.06;;;14.33;100.00
74524;BME280;63074;44.696;10.358;2023-11-19T23:27:36;100115.31;;;14.45;100.00
74524;BME280;63074;44.696;10.358;2023-11-19T23:30:04;100106.19;;;14.51;100.00
74524;BME280;63074;44.696;10.358;2023-11-19T23:32:30;100106.56;;;15.17;100.00
74524;BME280;63074;44.696;10.358;2023-11-19T23:34:57;100125.91;;;14.20;100.00
74524;BME280;63074;44.696;10.358;2023-11-19T23:37:23;100126.44;;;14.49;100.00
74524;BME280;63074;44.696;10.358;2023-11-19T23:39:50;100126.81;;;14.31;100.00
74524;BME280;63074;44.696;10.358;2023-11-19T23:42:17;100123.97;;;14.42;100.00
74524;BME280;63074;44.696;10.358;2023-11-19T23:44:43;100115.69;;;13.95;100.00
74524;BME280;63074;44.696;10.358;2023-11-19T23:47:09;100119.50;;;13.99;100.00
74524;BME280;63074;44.696;10.358;2023-11-19T23:49:35;100123.94;;;12.58;100.00
74524;BME280;63074;44.696;10.358;2023-11-19T23:52:02;100118.34;;;14.22;100.00
74524;BME280;63074;44.696;10.358;2023-11-19T23:54:31;100125.50;;;12.03;100.00
74524;BME280;63074;44.696;10.358;2023-11-19T23:56:57;100118.13;;;13.70;100.00
74524;BME280;63074;44.696;10.358;2023-11-19T23:59:23;100121.19;;;11.34;100.00
